Portada
METAR-TAF:

METAR-TAF

Aeroports :

Charleville, Austràlia

latitud: 26-24-45S, longitud: 146-15-44E, altitud: 306 m

Observació

L'informe es va fer fa 32 minuts, a les 07:00 UTC
Vent 6 kt del Oest/Sud-Oest, variant entre Sud i Oest
Temperatura 29°C
Humitat 14%
Pressió 1016 hPa
Visibilitat 10 km o més

METAR: YBCV 250700Z AUTO 24006KT 180V280 9999 // NCD 29/M01 Q1016

Hora: 17:32 (07:32 UTC)


TAF: manca

Observacions i pronòstics meteorològics de més de 4000 aeroports (METAR i TAF).

Les estacions disponibles són els punts grocs i vermells al mapa.

Posi el ratolí al punt desitjat per veure el nom de l'estació.

Feu clic per veure les observacions i els pronòstics meteorològics.

Per canviar el mapa: feu clic els botons verds amb una creu de color negre per apropar; al botó verd amb un guió per allunyar la imatge; o en les fletxes verdes per a mapes adjacents.


METAR-TAF: